This is the latest recevied weather packets stored in our database for station/object DL2GPS-3. If no packets are shown the sender has not sent any weather packets the latest 10 day(s).
| Time | Temp. | Humidity | Pressure | Rain* | Wind** | Luminosity | Snow |
|---|---|---|---|---|---|---|---|
| 1788672183 | 22.22° C | 46% | 1029.2 hPa | - | - | - | - |
| 1788671578 | 18.89° C | 57% | 1029.2 hPa | - | - | - | - |
| 1788670974 | 14.44° C | 72% | 1029.2 hPa | - | - | - | - |
| 1788670370 | 11.11° C | 87% | 1029.4 hPa | - | - | - | - |
| 1788669764 | 11.11° C | 88% | 1029.4 hPa | - | - | - | - |
| 1788669160 | 11.11° C | 89% | 1029.3 hPa | - | - | - | - |
| 1788668555 | 11.11° C | 85% | 1029.2 hPa | - | - | - | - |
| 1788667950 | 11.11° C | 87% | 1029.1 hPa | - | - | - | - |
| 1788667345 | 11.11° C | 85% | 1029.2 hPa | - | - | - | - |
| 1788666740 | 11.11° C | 84% | 1029.2 hPa | - | - | - | - |
| 1788666135 | 11.11° C | 82% | 1029.4 hPa | - | - | - | - |
| 1788665531 | 11.11° C | 85% | 1029.5 hPa | - | - | - | - |
| 1788664926 | 11.11° C | 84% | 1029.6 hPa | - | - | - | - |
| 1788664321 | 11.11° C | 86% | 1029.6 hPa | - | - | - | - |
| 1788663716 | 11.11° C | 87% | 1029.5 hPa | - | - | - | - |
| 1788663111 | 11.67° C | 83% | 1029.4 hPa | - | - | - | - |
| 1788662506 | 11.67° C | 79% | 1029.5 hPa | - | - | - | - |
| 1788661901 | 11.67° C | 76% | 1029.5 hPa | - | - | - | - |
| 1788661297 | 11.11° C | 78% | 1029.4 hPa | - | - | - | - |
| 1788660721 | 11.67° C | 87% | 1029.4 hPa | - | - | - | - |
| 1788660086 | 11.67° C | 86% | 1029.3 hPa | - | - | - | - |
| 1788659481 | 11.67° C | 89% | 1029.4 hPa | - | - | - | - |
| 1788658876 | 11.11° C | 88% | 1029.4 hPa | - | - | - | - |
| 1788658271 | 11.11° C | 90% | 1029.5 hPa | - | - | - | - |
| 1788657667 | 11.11° C | 92% | 1029.3 hPa | - | - | - | - |
* Rain since midnight (hover to see other rain measurements)
** Current wind speed in m/s (hover to see current wind gust speed)